N60CG KMYR-KSGJ
Flight info
| Callsign | N60CG |
|---|---|
| Flight time | 1h 8m |
| Altitude | 16000 |
| Route | PLANN V1 BASSO BASLE HOTAR1 |
| Aircraft | TBM9/L-VGDW/C |
Departure
| Time | 2026-05-04 21:00 |
|---|---|
| Airport | Myrtle Beach International Airport (KMYR) |
Arrival
| Time | 2026-05-04 22:09 |
|---|---|
| Airport | Northeast Florida Regional Airport (KSGJ) |
| Time | Latitude | Longitude | Altitude | Speed | Heading |
|---|---|---|---|---|---|
| 2026-05-04 20:46 | 33.67307 | -78.93161 | 31 ft | 0 kts | 346° |
| 2026-05-04 20:54 | 33.67305 | -78.93160 | 31 ft | 1 kts | 346° |
| 2026-05-04 20:54 | 33.67295 | -78.93162 | 31 ft | 2 kts | 41° |
| 2026-05-04 20:54 | 33.67295 | -78.93163 | 31 ft | 0 kts | 45° |
| 2026-05-04 20:55 | 33.67295 | -78.93162 | 31 ft | 0 kts | 45° |
| 2026-05-04 20:55 | 33.67302 | -78.93154 | 31 ft | 6 kts | 45° |
| 2026-05-04 20:56 | 33.67357 | -78.93090 | 31 ft | 15 kts | 36° |
| 2026-05-04 20:56 | 33.67489 | -78.93077 | 30 ft | 24 kts | 350° |
| 2026-05-04 20:56 | 33.67677 | -78.93123 | 31 ft | 31 kts | 348° |
| 2026-05-04 20:56 | 33.67917 | -78.93183 | 26 ft | 40 kts | 350° |
| 2026-05-04 20:57 | 33.68215 | -78.93255 | 22 ft | 44 kts | 348° |
| 2026-05-04 20:57 | 33.68501 | -78.93330 | 24 ft | 42 kts | 347° |
| 2026-05-04 20:57 | 33.68808 | -78.93406 | 29 ft | 47 kts | 349° |
| 2026-05-04 20:57 | 33.69065 | -78.93470 | 30 ft | 31 kts | 351° |
| 2026-05-04 20:58 | 33.69201 | -78.93382 | 31 ft | 27 kts | 77° |
| 2026-05-04 20:58 | 33.69227 | -78.93245 | 31 ft | 0 kts | 77° |
| 2026-05-04 20:58 | 33.69227 | -78.93242 | 31 ft | 0 kts | 77° |
| 2026-05-04 20:59 | 33.69228 | -78.93240 | 31 ft | 2 kts | 77° |
| 2026-05-04 20:59 | 33.69236 | -78.93182 | 30 ft | 12 kts | 86° |
| 2026-05-04 20:59 | 33.69152 | -78.93123 | 30 ft | 23 kts | 168° |
| 2026-05-04 20:59 | 33.68845 | -78.93045 | 28 ft | 70 kts | 167° |
| 2026-05-04 21:00 | 33.68221 | -78.92893 | 53 ft | 109 kts | 168° |
| 2026-05-04 21:00 | 33.67433 | -78.92681 | 270 ft | 124 kts | 166° |
| 2026-05-04 21:00 | 33.66561 | -78.92361 | 589 ft | 135 kts | 161° |
| 2026-05-04 21:00 | 33.65625 | -78.92282 | 1109 ft | 136 kts | 184° |
| 2026-05-04 21:01 | 33.64625 | -78.92361 | 1368 ft | 151 kts | 182° |
| 2026-05-04 21:01 | 33.63571 | -78.92444 | 1812 ft | 151 kts | 182° |
| 2026-05-04 21:01 | 33.62542 | -78.92588 | 2278 ft | 152 kts | 200° |
| 2026-05-04 21:01 | 33.61639 | -78.93276 | 2766 ft | 154 kts | 212° |
| 2026-05-04 21:02 | 33.60743 | -78.94000 | 3224 ft | 155 kts | 211° |
| 2026-05-04 21:02 | 33.59838 | -78.94700 | 3678 ft | 155 kts | 211° |
| 2026-05-04 21:02 | 33.58909 | -78.95389 | 4088 ft | 159 kts | 211° |
| 2026-05-04 21:02 | 33.57983 | -78.96138 | 4491 ft | 163 kts | 227° |
| 2026-05-04 21:03 | 33.57541 | -78.96865 | 4778 ft | 164 kts | 238° |
| 2026-05-04 21:03 | 33.56696 | -78.98394 | 5326 ft | 168 kts | 237° |
| 2026-05-04 21:03 | 33.56062 | -78.99589 | 5748 ft | 171 kts | 243° |
| 2026-05-04 21:03 | 33.55476 | -79.00842 | 6157 ft | 174 kts | 243° |
| 2026-05-04 21:04 | 33.54856 | -79.02098 | 6573 ft | 176 kts | 242° |
| 2026-05-04 21:04 | 33.54223 | -79.03368 | 7018 ft | 178 kts | 243° |
| 2026-05-04 21:04 | 33.53793 | -79.04234 | 7286 ft | 179 kts | 243° |
| 2026-05-04 21:04 | 33.53156 | -79.05510 | 7670 ft | 181 kts | 243° |
| 2026-05-04 21:05 | 33.52505 | -79.06809 | 8072 ft | 182 kts | 243° |
| 2026-05-04 21:05 | 33.51851 | -79.08118 | 8486 ft | 184 kts | 243° |
| 2026-05-04 21:05 | 33.51189 | -79.09442 | 8892 ft | 186 kts | 243° |
| 2026-05-04 21:05 | 33.50522 | -79.10775 | 9304 ft | 187 kts | 243° |
| 2026-05-04 21:06 | 33.49846 | -79.12123 | 9724 ft | 189 kts | 244° |
| 2026-05-04 21:06 | 33.49169 | -79.13480 | 10138 ft | 190 kts | 244° |
| 2026-05-04 21:06 | 33.48487 | -79.14842 | 10527 ft | 191 kts | 243° |
| 2026-05-04 21:06 | 33.47804 | -79.16201 | 10933 ft | 190 kts | 243° |
| 2026-05-04 21:07 | 33.47133 | -79.17544 | 11358 ft | 190 kts | 243° |
| 2026-05-04 21:07 | 33.46444 | -79.18917 | 11785 ft | 190 kts | 243° |
| 2026-05-04 21:07 | 33.45771 | -79.20252 | 12179 ft | 190 kts | 243° |
| 2026-05-04 21:07 | 33.45088 | -79.21614 | 12589 ft | 190 kts | 243° |
| 2026-05-04 21:08 | 33.44409 | -79.22972 | 12991 ft | 190 kts | 243° |
| 2026-05-04 21:08 | 33.43728 | -79.24329 | 13402 ft | 190 kts | 243° |
| 2026-05-04 21:08 | 33.43044 | -79.25687 | 13807 ft | 191 kts | 243° |
| 2026-05-04 21:08 | 33.42360 | -79.27049 | 14182 ft | 191 kts | 243° |
| 2026-05-04 21:09 | 33.41674 | -79.28416 | 14555 ft | 192 kts | 242° |
| 2026-05-04 21:09 | 33.40983 | -79.29788 | 14910 ft | 192 kts | 243° |
| 2026-05-04 21:09 | 33.40300 | -79.31146 | 15268 ft | 193 kts | 243° |
| 2026-05-04 21:09 | 33.39609 | -79.32520 | 15640 ft | 193 kts | 243° |
| 2026-05-04 21:10 | 33.38827 | -79.33841 | 15971 ft | 199 kts | 233° |
| 2026-05-04 21:10 | 33.37893 | -79.35157 | 15981 ft | 215 kts | 234° |
| 2026-05-04 21:10 | 33.36906 | -79.36573 | 15992 ft | 227 kts | 234° |
| 2026-05-04 21:10 | 33.35871 | -79.38054 | 15993 ft | 236 kts | 233° |
| 2026-05-04 21:11 | 33.34797 | -79.39585 | 15991 ft | 244 kts | 233° |
| 2026-05-04 21:11 | 33.33693 | -79.41159 | 15993 ft | 249 kts | 233° |
| 2026-05-04 21:11 | 33.32575 | -79.42758 | 15991 ft | 251 kts | 233° |
| 2026-05-04 21:11 | 33.31442 | -79.44372 | 15992 ft | 253 kts | 233° |
| 2026-05-04 21:12 | 33.30309 | -79.45987 | 15989 ft | 254 kts | 233° |
| 2026-05-04 21:12 | 33.29186 | -79.47588 | 15988 ft | 255 kts | 233° |
| 2026-05-04 21:12 | 33.28044 | -79.49213 | 15990 ft | 256 kts | 233° |
| 2026-05-04 21:12 | 33.26895 | -79.50850 | 15986 ft | 257 kts | 233° |
| 2026-05-04 21:13 | 33.25746 | -79.52485 | 15988 ft | 257 kts | 233° |
| 2026-05-04 21:13 | 33.24594 | -79.54123 | 15988 ft | 257 kts | 233° |
| 2026-05-04 21:13 | 33.23445 | -79.55755 | 15987 ft | 257 kts | 233° |
| 2026-05-04 21:13 | 33.22293 | -79.57393 | 15987 ft | 257 kts | 233° |
| 2026-05-04 21:14 | 33.21142 | -79.59027 | 15985 ft | 257 kts | 233° |
| 2026-05-04 21:14 | 33.19992 | -79.60660 | 15985 ft | 257 kts | 233° |
| 2026-05-04 21:14 | 33.18842 | -79.62293 | 15984 ft | 257 kts | 233° |
| 2026-05-04 21:14 | 33.17691 | -79.63925 | 15984 ft | 257 kts | 233° |
| 2026-05-04 21:15 | 33.16550 | -79.65541 | 15983 ft | 257 kts | 233° |
| 2026-05-04 21:15 | 33.15400 | -79.67171 | 15981 ft | 257 kts | 233° |
| 2026-05-04 21:15 | 33.14250 | -79.68798 | 15985 ft | 257 kts | 233° |
| 2026-05-04 21:15 | 33.13097 | -79.70432 | 15984 ft | 257 kts | 233° |
| 2026-05-04 21:16 | 33.11946 | -79.72062 | 15984 ft | 257 kts | 233° |
| 2026-05-04 21:16 | 33.10792 | -79.73692 | 15982 ft | 257 kts | 233° |
| 2026-05-04 21:16 | 33.09638 | -79.75325 | 15983 ft | 257 kts | 233° |
| 2026-05-04 21:16 | 33.08485 | -79.76954 | 15982 ft | 257 kts | 233° |
| 2026-05-04 21:17 | 33.07332 | -79.78584 | 15982 ft | 257 kts | 233° |
| 2026-05-04 21:17 | 33.06178 | -79.80213 | 15981 ft | 257 kts | 233° |
| 2026-05-04 21:17 | 33.05023 | -79.81842 | 15985 ft | 257 kts | 233° |
| 2026-05-04 21:17 | 33.03868 | -79.83473 | 15984 ft | 258 kts | 233° |
| 2026-05-04 21:18 | 33.02708 | -79.85107 | 15980 ft | 258 kts | 233° |
| 2026-05-04 21:18 | 33.01552 | -79.86738 | 15981 ft | 257 kts | 233° |
| 2026-05-04 21:18 | 33.00411 | -79.88346 | 15984 ft | 258 kts | 233° |
| 2026-05-04 21:18 | 32.99237 | -79.89999 | 15981 ft | 258 kts | 233° |
| 2026-05-04 21:19 | 32.98079 | -79.91631 | 15971 ft | 258 kts | 233° |
| 2026-05-04 21:19 | 32.96934 | -79.93241 | 15972 ft | 258 kts | 233° |
| 2026-05-04 21:19 | 32.95774 | -79.94870 | 15968 ft | 258 kts | 233° |
| 2026-05-04 21:19 | 32.94616 | -79.96502 | 15969 ft | 258 kts | 233° |
| 2026-05-04 21:20 | 32.93455 | -79.98131 | 15967 ft | 258 kts | 233° |
| 2026-05-04 21:20 | 32.92293 | -79.99761 | 15970 ft | 258 kts | 233° |
| 2026-05-04 21:20 | 32.91133 | -80.01394 | 15967 ft | 258 kts | 233° |
| 2026-05-04 21:20 | 32.89970 | -80.03022 | 15970 ft | 258 kts | 232° |
| 2026-05-04 21:21 | 32.88616 | -80.04442 | 15968 ft | 263 kts | 218° |
| 2026-05-04 21:21 | 32.87086 | -80.05643 | 15973 ft | 264 kts | 217° |
| 2026-05-04 21:21 | 32.85560 | -80.06867 | 15983 ft | 265 kts | 218° |
| 2026-05-04 21:21 | 32.84031 | -80.08103 | 15975 ft | 266 kts | 217° |
| 2026-05-04 21:22 | 32.82489 | -80.09327 | 15982 ft | 267 kts | 217° |
| 2026-05-04 21:22 | 32.80941 | -80.10558 | 15971 ft | 267 kts | 217° |
| 2026-05-04 21:22 | 32.79401 | -80.11789 | 15977 ft | 267 kts | 218° |
| 2026-05-04 21:22 | 32.77855 | -80.13017 | 15987 ft | 267 kts | 217° |
| 2026-05-04 21:23 | 32.76311 | -80.14251 | 15986 ft | 267 kts | 217° |
| 2026-05-04 21:23 | 32.74767 | -80.15478 | 15987 ft | 267 kts | 217° |
| 2026-05-04 21:23 | 32.73222 | -80.16711 | 15991 ft | 268 kts | 217° |
| 2026-05-04 21:23 | 32.71674 | -80.17946 | 15982 ft | 267 kts | 217° |
| 2026-05-04 21:24 | 32.70128 | -80.19176 | 15990 ft | 267 kts | 217° |
| 2026-05-04 21:24 | 32.68606 | -80.20381 | 15986 ft | 267 kts | 217° |
| 2026-05-04 21:24 | 32.67045 | -80.21620 | 15986 ft | 267 kts | 217° |
| 2026-05-04 21:24 | 32.65502 | -80.22847 | 15988 ft | 266 kts | 217° |
| 2026-05-04 21:25 | 32.63961 | -80.24072 | 15987 ft | 266 kts | 217° |
| 2026-05-04 21:25 | 32.62448 | -80.25275 | 15982 ft | 265 kts | 217° |
| 2026-05-04 21:25 | 32.60917 | -80.26489 | 15978 ft | 264 kts | 217° |
| 2026-05-04 21:25 | 32.59392 | -80.27698 | 15974 ft | 264 kts | 217° |
| 2026-05-04 21:26 | 32.57863 | -80.28909 | 15975 ft | 263 kts | 217° |
| 2026-05-04 21:26 | 32.56337 | -80.30120 | 15983 ft | 265 kts | 217° |
| 2026-05-04 21:26 | 32.54777 | -80.31293 | 15977 ft | 267 kts | 211° |
| 2026-05-04 21:26 | 32.53038 | -80.32107 | 15976 ft | 270 kts | 204° |
| 2026-05-04 21:27 | 32.51283 | -80.32898 | 15973 ft | 270 kts | 205° |
| 2026-05-04 21:27 | 32.49544 | -80.33723 | 15971 ft | 269 kts | 205° |
| 2026-05-04 21:27 | 32.47799 | -80.34527 | 15981 ft | 270 kts | 205° |
| 2026-05-04 21:27 | 32.46046 | -80.35326 | 15976 ft | 269 kts | 205° |
| 2026-05-04 21:28 | 32.44302 | -80.36125 | 15977 ft | 268 kts | 205° |
| 2026-05-04 21:28 | 32.42585 | -80.36911 | 15978 ft | 268 kts | 205° |
| 2026-05-04 21:28 | 32.40823 | -80.37719 | 15974 ft | 268 kts | 205° |
| 2026-05-04 21:28 | 32.39109 | -80.38504 | 15972 ft | 268 kts | 205° |
| 2026-05-04 21:29 | 32.37352 | -80.39308 | 15979 ft | 268 kts | 205° |
| 2026-05-04 21:29 | 32.35631 | -80.40095 | 15974 ft | 268 kts | 205° |
| 2026-05-04 21:29 | 32.33899 | -80.40887 | 15976 ft | 267 kts | 205° |
| 2026-05-04 21:29 | 32.32160 | -80.41682 | 15975 ft | 267 kts | 205° |
| 2026-05-04 21:30 | 32.30421 | -80.42477 | 15973 ft | 267 kts | 205° |
| 2026-05-04 21:30 | 32.28686 | -80.43269 | 15980 ft | 267 kts | 205° |
| 2026-05-04 21:30 | 32.26951 | -80.44062 | 15971 ft | 267 kts | 205° |
| 2026-05-04 21:30 | 32.25212 | -80.44855 | 15974 ft | 267 kts | 205° |
| 2026-05-04 21:31 | 32.21758 | -80.46430 | 15973 ft | 267 kts | 205° |
| 2026-05-04 21:31 | 32.20022 | -80.47221 | 15976 ft | 267 kts | 204° |
| 2026-05-04 21:31 | 32.18287 | -80.48011 | 15970 ft | 267 kts | 205° |
| 2026-05-04 21:32 | 32.16553 | -80.48802 | 15969 ft | 267 kts | 204° |
| 2026-05-04 21:32 | 32.14817 | -80.49591 | 15967 ft | 267 kts | 204° |
| 2026-05-04 21:32 | 32.13078 | -80.50383 | 15970 ft | 267 kts | 204° |
| 2026-05-04 21:32 | 32.11341 | -80.51173 | 15968 ft | 267 kts | 204° |
| 2026-05-04 21:33 | 32.09597 | -80.51966 | 15962 ft | 267 kts | 204° |
| 2026-05-04 21:33 | 32.07883 | -80.52745 | 15964 ft | 267 kts | 204° |
| 2026-05-04 21:33 | 32.06147 | -80.53533 | 15965 ft | 267 kts | 204° |
| 2026-05-04 21:33 | 32.04399 | -80.54327 | 15966 ft | 267 kts | 204° |
| 2026-05-04 21:34 | 32.02669 | -80.55112 | 15959 ft | 268 kts | 204° |
| 2026-05-04 21:34 | 32.00928 | -80.55902 | 15962 ft | 268 kts | 204° |
| 2026-05-04 21:34 | 31.99191 | -80.56690 | 15956 ft | 268 kts | 204° |
| 2026-05-04 21:34 | 31.97450 | -80.57479 | 15958 ft | 267 kts | 204° |
| 2026-05-04 21:35 | 31.95736 | -80.58256 | 15956 ft | 267 kts | 204° |
| 2026-05-04 21:35 | 31.94000 | -80.59043 | 15958 ft | 267 kts | 204° |
| 2026-05-04 21:35 | 31.92259 | -80.59830 | 15962 ft | 267 kts | 204° |
| 2026-05-04 21:35 | 31.90522 | -80.60617 | 15958 ft | 267 kts | 204° |
| 2026-05-04 21:36 | 31.88785 | -80.61403 | 15960 ft | 267 kts | 204° |
| 2026-05-04 21:36 | 31.87048 | -80.62188 | 15963 ft | 267 kts | 204° |
| 2026-05-04 21:36 | 31.85307 | -80.62975 | 15958 ft | 268 kts | 204° |
| 2026-05-04 21:36 | 31.83573 | -80.63759 | 15958 ft | 268 kts | 204° |
| 2026-05-04 21:37 | 31.81830 | -80.64546 | 15958 ft | 268 kts | 204° |
| 2026-05-04 21:37 | 31.80095 | -80.65330 | 15958 ft | 268 kts | 204° |
| 2026-05-04 21:37 | 31.78372 | -80.66107 | 15958 ft | 268 kts | 204° |
| 2026-05-04 21:37 | 31.76633 | -80.66892 | 15959 ft | 268 kts | 204° |
| 2026-05-04 21:38 | 31.74898 | -80.67674 | 15958 ft | 268 kts | 204° |
| 2026-05-04 21:38 | 31.73156 | -80.68460 | 15958 ft | 267 kts | 204° |
| 2026-05-04 21:38 | 31.71418 | -80.69242 | 15961 ft | 267 kts | 204° |
| 2026-05-04 21:38 | 31.69681 | -80.70026 | 15958 ft | 267 kts | 204° |
| 2026-05-04 21:39 | 31.67943 | -80.70807 | 15957 ft | 267 kts | 204° |
| 2026-05-04 21:39 | 31.66205 | -80.71590 | 15956 ft | 267 kts | 204° |
| 2026-05-04 21:39 | 31.64463 | -80.72373 | 15958 ft | 267 kts | 204° |
| 2026-05-04 21:39 | 31.62725 | -80.73156 | 15957 ft | 268 kts | 204° |
| 2026-05-04 21:40 | 31.60986 | -80.73937 | 15960 ft | 268 kts | 204° |
| 2026-05-04 21:40 | 31.59248 | -80.74718 | 15957 ft | 268 kts | 204° |
| 2026-05-04 21:40 | 31.57509 | -80.75499 | 15958 ft | 268 kts | 204° |
| 2026-05-04 21:40 | 31.55770 | -80.76281 | 15957 ft | 268 kts | 204° |
| 2026-05-04 21:41 | 31.54026 | -80.77063 | 15959 ft | 268 kts | 204° |
| 2026-05-04 21:41 | 31.52287 | -80.77843 | 15958 ft | 268 kts | 204° |
| 2026-05-04 21:41 | 31.50547 | -80.78623 | 15959 ft | 268 kts | 204° |
| 2026-05-04 21:41 | 31.48822 | -80.79397 | 15957 ft | 268 kts | 204° |
| 2026-05-04 21:42 | 31.47082 | -80.80176 | 15954 ft | 268 kts | 204° |
| 2026-05-04 21:42 | 31.45339 | -80.80957 | 15955 ft | 268 kts | 204° |
| 2026-05-04 21:42 | 31.43603 | -80.81734 | 15958 ft | 268 kts | 204° |
| 2026-05-04 21:42 | 31.41864 | -80.82513 | 15958 ft | 268 kts | 204° |
| 2026-05-04 21:43 | 31.40121 | -80.83292 | 15956 ft | 268 kts | 204° |
| 2026-05-04 21:43 | 31.38382 | -80.84070 | 15958 ft | 268 kts | 204° |
| 2026-05-04 21:43 | 31.36643 | -80.84848 | 15956 ft | 268 kts | 204° |
| 2026-05-04 21:43 | 31.34903 | -80.85625 | 15957 ft | 268 kts | 204° |
| 2026-05-04 21:44 | 31.33164 | -80.86402 | 15958 ft | 268 kts | 204° |
| 2026-05-04 21:44 | 31.31424 | -80.87179 | 15956 ft | 268 kts | 204° |
| 2026-05-04 21:44 | 31.29680 | -80.87957 | 15956 ft | 268 kts | 204° |
| 2026-05-04 21:44 | 31.27963 | -80.88723 | 15959 ft | 268 kts | 203° |
| 2026-05-04 21:45 | 31.26199 | -80.89510 | 15958 ft | 268 kts | 204° |
| 2026-05-04 21:45 | 31.24458 | -80.90286 | 15959 ft | 268 kts | 203° |
| 2026-05-04 21:45 | 31.22721 | -80.91059 | 15957 ft | 268 kts | 203° |
| 2026-05-04 21:45 | 31.21000 | -80.91826 | 15958 ft | 268 kts | 203° |
| 2026-05-04 21:46 | 31.19255 | -80.92603 | 15958 ft | 268 kts | 203° |
| 2026-05-04 21:46 | 31.17515 | -80.93378 | 15954 ft | 268 kts | 203° |
| 2026-05-04 21:46 | 31.15770 | -80.94154 | 15956 ft | 268 kts | 203° |
| 2026-05-04 21:46 | 31.14031 | -80.94928 | 15954 ft | 268 kts | 203° |
| 2026-05-04 21:47 | 31.12291 | -80.95700 | 15955 ft | 267 kts | 203° |
| 2026-05-04 21:47 | 31.10553 | -80.96474 | 15956 ft | 267 kts | 203° |
| 2026-05-04 21:47 | 31.08811 | -80.97247 | 15953 ft | 267 kts | 203° |
| 2026-05-04 21:47 | 31.07074 | -80.98019 | 15953 ft | 267 kts | 203° |
| 2026-05-04 21:48 | 31.05336 | -80.98789 | 15953 ft | 267 kts | 204° |
| 2026-05-04 21:48 | 31.03600 | -80.99560 | 15952 ft | 267 kts | 203° |
| 2026-05-04 21:48 | 31.01860 | -81.00332 | 15954 ft | 267 kts | 203° |
| 2026-05-04 21:48 | 31.00148 | -81.01091 | 15953 ft | 267 kts | 203° |
| 2026-05-04 21:49 | 30.98412 | -81.01860 | 15955 ft | 267 kts | 203° |
| 2026-05-04 21:49 | 30.96677 | -81.02629 | 15953 ft | 267 kts | 203° |
| 2026-05-04 21:49 | 30.94942 | -81.03397 | 15955 ft | 267 kts | 204° |
| 2026-05-04 21:49 | 30.93207 | -81.04165 | 15954 ft | 267 kts | 203° |
| 2026-05-04 21:50 | 30.91472 | -81.04933 | 15954 ft | 267 kts | 204° |
| 2026-05-04 21:50 | 30.89738 | -81.05700 | 15955 ft | 267 kts | 204° |
| 2026-05-04 21:50 | 30.88004 | -81.06466 | 15956 ft | 266 kts | 204° |
| 2026-05-04 21:50 | 30.86271 | -81.07233 | 15955 ft | 266 kts | 204° |
| 2026-05-04 21:51 | 30.84539 | -81.07998 | 15955 ft | 266 kts | 204° |
| 2026-05-04 21:51 | 30.82807 | -81.08763 | 15960 ft | 266 kts | 204° |
| 2026-05-04 21:51 | 30.81034 | -81.09397 | 15954 ft | 269 kts | 192° |
| 2026-05-04 21:51 | 30.79803 | -81.09544 | 15957 ft | 270 kts | 187° |
| 2026-05-04 21:52 | 30.77906 | -81.09738 | 15687 ft | 279 kts | 188° |
| 2026-05-04 21:52 | 30.75269 | -81.10045 | 15208 ft | 289 kts | 188° |
| 2026-05-04 21:52 | 30.73936 | -81.10190 | 14968 ft | 292 kts | 187° |
| 2026-05-04 21:52 | 30.71906 | -81.10406 | 14621 ft | 294 kts | 187° |
| 2026-05-04 21:53 | 30.69866 | -81.10629 | 14276 ft | 295 kts | 187° |
| 2026-05-04 21:53 | 30.67819 | -81.10850 | 13932 ft | 295 kts | 187° |
| 2026-05-04 21:53 | 30.65769 | -81.11074 | 13546 ft | 295 kts | 187° |
| 2026-05-04 21:53 | 30.63736 | -81.11353 | 13159 ft | 293 kts | 194° |
| 2026-05-04 21:54 | 30.61794 | -81.12025 | 12775 ft | 291 kts | 199° |
| 2026-05-04 21:54 | 30.59848 | -81.12675 | 12397 ft | 290 kts | 197° |
| 2026-05-04 21:54 | 30.57913 | -81.13295 | 12024 ft | 288 kts | 198° |
| 2026-05-04 21:54 | 30.56008 | -81.13944 | 11658 ft | 286 kts | 200° |
| 2026-05-04 21:55 | 30.54283 | -81.15026 | 11425 ft | 278 kts | 217° |
| 2026-05-04 21:55 | 30.52736 | -81.16363 | 11087 ft | 278 kts | 219° |
| 2026-05-04 21:55 | 30.51180 | -81.17715 | 10740 ft | 278 kts | 217° |
| 2026-05-04 21:55 | 30.49560 | -81.18941 | 10382 ft | 279 kts | 213° |
| 2026-05-04 21:56 | 30.47912 | -81.20132 | 10007 ft | 278 kts | 214° |
| 2026-05-04 21:56 | 30.46296 | -81.21359 | 9610 ft | 277 kts | 215° |
| 2026-05-04 21:56 | 30.44692 | -81.22587 | 9232 ft | 276 kts | 214° |
| 2026-05-04 21:56 | 30.43088 | -81.23798 | 8865 ft | 275 kts | 214° |
| 2026-05-04 21:57 | 30.41489 | -81.25003 | 8493 ft | 274 kts | 214° |
| 2026-05-04 21:57 | 30.39910 | -81.26198 | 8130 ft | 273 kts | 215° |
| 2026-05-04 21:57 | 30.38319 | -81.27400 | 7763 ft | 273 kts | 214° |
| 2026-05-04 21:57 | 30.36729 | -81.28602 | 7394 ft | 273 kts | 214° |
| 2026-05-04 21:58 | 30.35140 | -81.29799 | 7030 ft | 272 kts | 215° |
| 2026-05-04 21:58 | 30.33552 | -81.31000 | 6664 ft | 272 kts | 215° |
| 2026-05-04 21:58 | 30.31959 | -81.32199 | 6283 ft | 271 kts | 214° |
| 2026-05-04 21:58 | 30.30386 | -81.33383 | 5914 ft | 269 kts | 214° |
| 2026-05-04 21:59 | 30.28823 | -81.34564 | 5550 ft | 267 kts | 213° |
| 2026-05-04 21:59 | 30.27268 | -81.35735 | 5187 ft | 265 kts | 213° |
| 2026-05-04 21:59 | 30.25730 | -81.36893 | 4844 ft | 263 kts | 213° |
| 2026-05-04 21:59 | 30.24202 | -81.38042 | 4471 ft | 261 kts | 212° |
| 2026-05-04 22:00 | 30.22669 | -81.39195 | 4108 ft | 264 kts | 212° |
| 2026-05-04 22:00 | 30.21155 | -81.40340 | 3760 ft | 262 kts | 210° |
| 2026-05-04 22:00 | 30.19614 | -81.41477 | 3401 ft | 263 kts | 211° |
| 2026-05-04 22:00 | 30.18172 | -81.42589 | 3061 ft | 234 kts | 211° |
| 2026-05-04 22:01 | 30.16854 | -81.43586 | 2753 ft | 219 kts | 209° |
| 2026-05-04 22:01 | 30.15592 | -81.44515 | 2459 ft | 213 kts | 209° |
| 2026-05-04 22:01 | 30.14397 | -81.45416 | 2173 ft | 195 kts | 210° |
| 2026-05-04 22:01 | 30.13349 | -81.46268 | 2115 ft | 174 kts | 212° |
| 2026-05-04 22:02 | 30.12387 | -81.47080 | 2116 ft | 168 kts | 211° |
| 2026-05-04 22:02 | 30.11466 | -81.47845 | 2126 ft | 165 kts | 210° |
| 2026-05-04 22:02 | 30.10526 | -81.48631 | 2097 ft | 167 kts | 211° |
| 2026-05-04 22:02 | 30.09593 | -81.49418 | 2097 ft | 158 kts | 212° |
| 2026-05-04 22:03 | 30.08692 | -81.50104 | 2079 ft | 154 kts | 199° |
| 2026-05-04 22:03 | 30.07663 | -81.50320 | 2015 ft | 148 kts | 173° |
| 2026-05-04 22:03 | 30.06696 | -81.50057 | 2016 ft | 141 kts | 150° |
| 2026-05-04 22:03 | 30.05905 | -81.49397 | 2012 ft | 141 kts | 130° |
| 2026-05-04 22:04 | 30.05335 | -81.48516 | 2004 ft | 129 kts | 123° |
| 2026-05-04 22:04 | 30.04804 | -81.47690 | 1996 ft | 126 kts | 124° |
| 2026-05-04 22:04 | 30.04269 | -81.46872 | 2005 ft | 128 kts | 124° |
| 2026-05-04 22:04 | 30.03748 | -81.46058 | 1958 ft | 122 kts | 122° |
| 2026-05-04 22:05 | 30.03248 | -81.45248 | 1895 ft | 126 kts | 124° |
| 2026-05-04 22:05 | 30.02721 | -81.44430 | 1820 ft | 128 kts | 123° |
| 2026-05-04 22:05 | 30.02198 | -81.43611 | 1737 ft | 128 kts | 123° |
| 2026-05-04 22:05 | 30.01670 | -81.42783 | 1657 ft | 127 kts | 124° |
| 2026-05-04 22:06 | 30.01157 | -81.41981 | 1550 ft | 115 kts | 124° |
| 2026-05-04 22:06 | 30.00724 | -81.41308 | 1430 ft | 96 kts | 123° |
| 2026-05-04 22:06 | 30.00343 | -81.40709 | 1301 ft | 90 kts | 123° |
| 2026-05-04 22:06 | 29.99989 | -81.40118 | 1177 ft | 89 kts | 122° |
| 2026-05-04 22:07 | 29.99620 | -81.39551 | 1159 ft | 88 kts | 125° |
| 2026-05-04 22:07 | 29.99234 | -81.38968 | 1036 ft | 94 kts | 124° |
| 2026-05-04 22:07 | 29.98832 | -81.38357 | 905 ft | 97 kts | 123° |
| 2026-05-04 22:07 | 29.98411 | -81.37738 | 744 ft | 99 kts | 123° |
| 2026-05-04 22:08 | 29.98002 | -81.37092 | 603 ft | 101 kts | 121° |
| 2026-05-04 22:08 | 29.97603 | -81.36428 | 403 ft | 99 kts | 121° |
| 2026-05-04 22:08 | 29.97240 | -81.35818 | 237 ft | 85 kts | 126° |
| 2026-05-04 22:08 | 29.96911 | -81.35311 | 154 ft | 79 kts | 127° |
| 2026-05-04 22:09 | 29.96575 | -81.34798 | 39 ft | 77 kts | 127° |
| 2026-05-04 22:09 | 29.96295 | -81.34373 | 13 ft | 53 kts | 126° |
| 2026-05-04 22:09 | 29.96121 | -81.34100 | 11 ft | 39 kts | 127° |
| 2026-05-04 22:09 | 29.95999 | -81.33919 | 12 ft | 17 kts | 128° |
| 2026-05-04 22:10 | 29.95930 | -81.33895 | 14 ft | 3 kts | 210° |
| 2026-05-04 22:10 | 29.95870 | -81.33924 | 14 ft | 14 kts | 195° |
| 2026-05-04 22:10 | 29.95757 | -81.33967 | 15 ft | 20 kts | 201° |
| 2026-05-04 22:10 | 29.95675 | -81.34009 | 16 ft | 13 kts | 201° |
| 2026-05-04 22:11 | 29.95611 | -81.34076 | 16 ft | 9 kts | 261° |
| 2026-05-04 22:11 | 29.95561 | -81.34130 | 15 ft | 10 kts | 259° |
| 2026-05-04 22:11 | 29.95565 | -81.34164 | 14 ft | 0 kts | 281° |